createdAt,value
2018-09-02T00:02:09.528Z,86.66
2018-09-02T00:04:39.045Z,85.42
2018-09-02T00:07:07.827Z,85.90
2018-09-02T00:09:36.766Z,85.18
2018-09-02T00:12:06.091Z,85.82
2018-09-02T00:14:35.218Z,86.70
2018-09-02T00:17:04.585Z,87.79
2018-09-02T00:19:33.823Z,88.88
2018-09-02T00:22:03.639Z,88.88
2018-09-02T00:24:32.439Z,89.36
2018-09-02T00:27:01.208Z,89.59
2018-09-02T00:29:30.896Z,89.17
2018-09-02T00:31:59.670Z,87.72
2018-09-02T00:34:29.075Z,87.68
2018-09-02T00:36:57.816Z,86.76
2018-09-02T00:39:27.163Z,85.67
2018-09-02T00:41:55.945Z,85.68
2018-09-02T00:44:24.757Z,86.02
2018-09-02T00:46:53.756Z,85.17
2018-09-02T00:49:23.293Z,85.63
2018-09-02T00:51:52.426Z,85.38
2018-09-02T00:54:21.827Z,85.01
2018-09-02T00:56:51.298Z,85.32
2018-09-02T00:59:20.052Z,84.80
2018-09-02T01:01:48.879Z,85.75
2018-09-02T01:04:17.643Z,86.57
2018-09-02T01:06:47.720Z,85.71
2018-09-02T01:09:16.569Z,85.08
2018-09-02T01:11:45.924Z,85.47
2018-09-02T01:14:14.937Z,85.13
2018-09-02T01:16:44.447Z,85.12
2018-09-02T01:19:13.512Z,85.27
2018-09-02T01:21:44.027Z,86.09
2018-09-02T01:24:13.004Z,86.42
2018-09-02T01:26:41.773Z,86.33
2018-09-02T01:29:11.624Z,86.80
2018-09-02T01:31:40.866Z,87.27
2018-09-02T01:34:10.158Z,86.79
2018-09-02T01:36:38.915Z,86.07
2018-09-02T01:39:08.766Z,85.91
2018-09-02T01:41:37.528Z,85.40
2018-09-02T01:44:06.780Z,84.92
2018-09-02T01:46:36.067Z,85.23
2018-09-02T01:49:05.821Z,84.64
2018-09-02T01:51:36.351Z,85.42
2018-09-02T01:54:06.304Z,85.38
2018-09-02T01:56:36.299Z,85.62
2018-09-02T01:59:05.639Z,85.58
2018-09-02T02:01:35.231Z,85.33
2018-09-02T02:04:04.672Z,86.00
2018-09-02T02:06:35.127Z,85.98
2018-09-02T02:09:04.704Z,86.47
2018-09-02T02:11:33.649Z,86.70
2018-09-02T02:14:02.545Z,86.81
2018-09-02T02:16:31.308Z,87.16
2018-09-02T02:19:00.177Z,86.69
2018-09-02T02:21:29.697Z,86.72
2018-09-02T02:23:58.576Z,85.90
2018-09-02T02:26:27.397Z,86.61
2018-09-02T02:28:56.243Z,86.43
2018-09-02T02:31:26.209Z,87.37
2018-09-02T02:33:55.607Z,86.38
2018-09-02T02:36:24.406Z,86.66
2018-09-02T02:38:54.379Z,86.09
2018-09-02T02:41:23.568Z,86.05
2018-09-02T02:43:52.351Z,85.83
2018-09-02T02:46:21.210Z,86.43
2018-09-02T02:48:50.632Z,85.64
2018-09-02T02:51:19.971Z,85.64
2018-09-02T02:53:48.728Z,86.63
2018-09-02T02:56:17.965Z,86.36
2018-09-02T02:58:47.344Z,86.39
2018-09-02T03:01:16.073Z,85.87
2018-09-02T03:03:45.159Z,85.73
2018-09-02T03:06:14.864Z,85.68
2018-09-02T03:08:43.748Z,85.48
2018-09-02T03:11:12.637Z,85.00
2018-09-02T03:13:41.532Z,86.11
2018-09-02T03:16:10.781Z,85.73
2018-09-02T03:18:40.114Z,86.68
2018-09-02T03:21:09.434Z,86.43
2018-09-02T03:23:38.299Z,86.60
2018-09-02T03:26:07.970Z,85.88
2018-09-02T03:28:37.307Z,87.15
2018-09-02T03:31:07.341Z,87.97
2018-09-02T03:33:37.562Z,87.39
2018-09-02T03:36:07.363Z,87.12
2018-09-02T03:38:37.151Z,87.43
2018-09-02T03:41:07.276Z,86.57
2018-09-02T03:43:36.579Z,86.68
2018-09-02T03:46:05.978Z,86.37
2018-09-02T03:48:36.415Z,86.66
2018-09-02T03:51:06.413Z,86.44
2018-09-02T03:53:35.703Z,86.44
2018-09-02T03:56:05.277Z,86.65
2018-09-02T03:58:35.317Z,86.53
2018-09-02T04:01:04.596Z,85.95
2018-09-02T04:03:33.980Z,85.43
2018-09-02T04:06:02.813Z,85.65
2018-09-02T04:08:32.636Z,85.51
2018-09-02T04:11:01.439Z,86.35
2018-09-02T04:13:30.243Z,86.51
2018-09-02T04:15:59.049Z,85.71
2018-09-02T04:18:27.807Z,85.58
2018-09-02T04:20:57.082Z,85.22
2018-09-02T04:23:25.853Z,85.51
2018-09-02T04:25:54.663Z,84.96
2018-09-02T04:28:23.481Z,85.37
2018-09-02T04:30:53.183Z,85.79
2018-09-02T04:33:22.470Z,84.82
2018-09-02T04:35:51.297Z,84.67
2018-09-02T04:38:21.021Z,84.99
2018-09-02T04:40:50.685Z,85.12
2018-09-02T04:43:19.433Z,85.42
2018-09-02T04:45:48.167Z,84.87
2018-09-02T04:48:17.777Z,84.53
2018-09-02T04:50:47.171Z,84.44
2018-09-02T04:53:16.579Z,84.58
2018-09-02T04:55:46.067Z,84.60
2018-09-02T04:58:15.440Z,84.33
2018-09-02T05:00:44.323Z,84.13
2018-09-02T05:03:13.281Z,84.67
2018-09-02T05:05:42.188Z,84.01
2018-09-02T05:08:11.572Z,84.45
2018-09-02T05:10:40.322Z,84.09
2018-09-02T05:13:09.166Z,84.62
2018-09-02T05:15:38.018Z,84.77
2018-09-02T05:18:07.185Z,84.99
2018-09-02T05:20:37.267Z,85.26
2018-09-02T05:23:06.519Z,84.86
2018-09-02T05:25:35.914Z,85.83
2018-09-02T05:28:05.769Z,85.95
2018-09-02T05:30:35.837Z,86.02
2018-09-02T05:33:05.707Z,86.34
2018-09-02T05:35:34.775Z,87.13
2018-09-02T05:38:04.481Z,86.65
2018-09-02T05:40:34.491Z,86.30
2018-09-02T05:43:04.423Z,86.47
2018-09-02T05:45:34.893Z,86.11
2018-09-02T05:48:04.864Z,86.21
2018-09-02T05:50:34.876Z,86.33
2018-09-02T05:53:03.893Z,85.56
2018-09-02T05:55:34.226Z,85.49
2018-09-02T05:58:03.932Z,85.35
2018-09-02T06:00:32.771Z,85.72
2018-09-02T06:03:01.998Z,86.12
2018-09-02T06:05:30.911Z,85.74
2018-09-02T06:08:00.957Z,86.18
2018-09-02T06:10:29.817Z,86.06
2018-09-02T06:12:58.691Z,85.32
2018-09-02T06:15:27.503Z,85.76
2018-09-02T06:17:56.340Z,86.20
2018-09-02T06:20:25.597Z,85.76
2018-09-02T06:22:54.478Z,86.03
2018-09-02T06:25:23.291Z,86.19
2018-09-02T06:27:52.113Z,85.91
2018-09-02T06:30:21.464Z,86.11
2018-09-02T06:32:50.351Z,85.52
2018-09-02T06:35:20.156Z,85.48
2018-09-02T06:37:48.946Z,84.90
2018-09-02T06:40:18.352Z,84.45
2018-09-02T06:42:47.225Z,84.65
2018-09-02T06:45:16.010Z,84.03
2018-09-02T06:47:45.855Z,84.53
2018-09-02T06:50:15.308Z,83.68
2018-09-02T06:52:44.272Z,83.99
2018-09-02T06:55:13.716Z,83.66
2018-09-02T06:57:57.799Z,84.43
2018-09-02T07:00:26.603Z,82.98
2018-09-02T07:02:55.631Z,82.54
2018-09-02T07:05:24.462Z,82.76
2018-09-02T07:07:53.726Z,81.48
2018-09-02T07:10:22.528Z,82.30
2018-09-02T07:12:52.861Z,82.10
2018-09-02T07:15:21.618Z,82.06
2018-09-02T07:17:50.514Z,80.94
2018-09-02T07:20:19.433Z,80.32
2018-09-02T07:22:48.316Z,80.48
2018-09-02T07:25:17.256Z,80.49
2018-09-02T07:27:46.325Z,78.93
2018-09-02T07:30:16.253Z,77.98
2018-09-02T07:32:45.428Z,78.36
2018-09-02T07:35:15.375Z,78.36
2018-09-02T07:37:44.387Z,78.83
2018-09-02T07:40:13.999Z,77.97
2018-09-02T07:42:43.152Z,77.91
2018-09-02T07:45:13.028Z,77.77
2018-09-02T07:47:43.413Z,77.83
2018-09-02T07:50:13.083Z,77.30
2018-09-02T07:52:41.843Z,77.33
2018-09-02T07:55:11.100Z,77.44
2018-09-02T07:57:40.848Z,76.61
2018-09-02T08:00:10.842Z,76.57
2018-09-02T08:02:40.056Z,76.33
2018-09-02T08:05:09.107Z,76.62
2018-09-02T08:07:38.701Z,75.91
2018-09-02T08:10:09.023Z,75.79
2018-09-02T08:12:37.979Z,76.26
2018-09-02T08:15:07.447Z,74.20
2018-09-02T08:17:36.678Z,73.97
2018-09-02T08:20:06.779Z,73.54
2018-09-02T08:22:37.138Z,71.91
2018-09-02T08:25:06.553Z,72.84
2018-09-02T08:27:35.827Z,73.06
2018-09-02T08:30:05.509Z,72.04
2018-09-02T08:32:34.780Z,69.44
2018-09-02T08:35:04.802Z,69.16
2018-09-02T08:37:33.826Z,68.63
2018-09-02T08:40:03.116Z,69.25
2018-09-02T08:42:31.911Z,70.13
2018-09-02T08:45:00.995Z,69.65
2018-09-02T08:47:29.776Z,68.50
2018-09-02T08:49:59.119Z,69.60
2018-09-02T08:52:27.883Z,67.29
2018-09-02T08:54:57.280Z,67.55
2018-09-02T08:57:26.632Z,67.94
2018-09-02T08:59:55.487Z,67.51
2018-09-02T09:02:24.316Z,66.63
2018-09-02T09:04:53.124Z,64.48
2018-09-02T09:07:22.601Z,65.80
2018-09-02T09:09:51.452Z,65.25
2018-09-02T09:12:20.231Z,65.40
2018-09-02T09:14:49.008Z,65.13
2018-09-02T09:17:17.845Z,63.21
2018-09-02T09:19:46.881Z,64.89
2018-09-02T09:22:15.861Z,61.92
2018-09-02T09:24:45.408Z,62.12
2018-09-02T09:27:14.536Z,61.00
2018-09-02T09:29:43.796Z,61.88
2018-09-02T09:32:12.935Z,60.90
2018-09-02T09:34:42.457Z,60.60
2018-09-02T09:37:11.352Z,60.27
2018-09-02T09:39:40.934Z,60.96
2018-09-02T09:42:09.717Z,60.15
2018-09-02T09:44:38.478Z,58.05
2018-09-02T09:47:07.595Z,58.04
2018-09-02T09:49:37.521Z,58.57
2018-09-02T09:52:07.088Z,57.72
2018-09-02T09:54:37.089Z,58.44
2018-09-02T09:57:06.630Z,57.50
2018-09-02T09:59:35.771Z,58.13
2018-09-02T10:02:04.838Z,58.89
2018-09-02T10:04:33.784Z,57.03
2018-09-02T10:07:03.182Z,57.62
2018-09-02T10:09:31.999Z,55.50
2018-09-02T10:12:00.798Z,54.67
2018-09-02T10:14:29.646Z,55.07
2018-09-02T10:16:58.637Z,55.51
2018-09-02T10:19:27.521Z,55.51
2018-09-02T10:21:56.389Z,55.50
2018-09-02T10:24:25.144Z,55.41
2018-09-02T10:26:53.936Z,55.96
2018-09-02T10:29:22.739Z,54.73
2018-09-02T10:31:52.394Z,54.37
2018-09-02T10:34:21.948Z,55.17
2018-09-02T10:36:50.806Z,55.16
2018-09-02T10:39:20.195Z,55.22
2018-09-02T10:41:49.054Z,55.02
2018-09-02T10:44:17.816Z,53.83
2018-09-02T10:46:46.796Z,52.99
2018-09-02T10:49:16.443Z,52.29
2018-09-02T10:51:46.767Z,52.00
2018-09-02T10:54:16.853Z,51.42
2018-09-02T10:56:46.451Z,52.16
2018-09-02T10:59:15.843Z,51.69
2018-09-02T11:01:44.906Z,53.26
2018-09-02T11:04:14.011Z,52.00
2018-09-02T11:06:43.510Z,51.34
2018-09-02T11:09:14.572Z,52.34
2018-09-02T11:11:43.426Z,50.89
2018-09-02T11:14:12.241Z,50.03
2018-09-02T11:16:41.017Z,51.32
2018-09-02T11:19:09.907Z,51.90
2018-09-02T11:21:38.747Z,51.98
2018-09-02T11:24:07.614Z,52.35
2018-09-02T11:26:37.039Z,49.54
2018-09-02T11:29:06.391Z,50.31
2018-09-02T11:31:36.101Z,50.67
2018-09-02T11:34:06.050Z,49.61
2018-09-02T11:36:35.113Z,51.68
2018-09-02T11:39:05.774Z,50.10
2018-09-02T11:41:34.740Z,49.36
2018-09-02T11:44:04.139Z,47.59
2018-09-02T11:46:33.032Z,47.15
2018-09-02T11:49:02.851Z,47.31
2018-09-02T11:51:32.186Z,48.05
2018-09-02T11:54:01.485Z,49.38
2018-09-02T11:56:30.248Z,47.89
2018-09-02T11:59:00.094Z,49.51
2018-09-02T12:01:28.988Z,49.27
2018-09-02T12:03:57.883Z,48.06
2018-09-02T12:06:27.807Z,47.77
2018-09-02T12:08:56.692Z,47.32
2018-09-02T12:11:25.495Z,46.99
2018-09-02T12:13:54.337Z,47.61
2018-09-02T12:16:23.119Z,46.76
2018-09-02T12:18:52.079Z,46.13
2018-09-02T12:21:20.924Z,45.53
2018-09-02T12:23:49.698Z,45.18
2018-09-02T12:26:18.464Z,46.24
2018-09-02T12:28:47.421Z,45.83
2018-09-02T12:31:18.091Z,46.43
2018-09-02T12:33:50.999Z,45.49
2018-09-02T12:36:19.983Z,45.50
2018-09-02T12:38:49.320Z,44.97
2018-09-02T12:41:18.742Z,45.61
2018-09-02T12:43:47.503Z,44.83
2018-09-02T12:46:17.536Z,45.13
2018-09-02T12:48:46.989Z,44.83
2018-09-02T12:51:16.997Z,43.95
2018-09-02T12:53:45.884Z,44.70
2018-09-02T12:56:15.801Z,44.49
2018-09-02T12:58:45.109Z,43.92
2018-09-02T13:01:14.219Z,43.54
2018-09-02T13:03:57.417Z,45.28
2018-09-02T13:06:26.865Z,45.96
2018-09-02T13:08:55.702Z,44.45
2018-09-02T13:11:24.491Z,44.08
2018-09-02T13:13:54.260Z,43.93
2018-09-02T13:16:23.055Z,44.97
2018-09-02T13:18:52.846Z,45.15
2018-09-02T13:21:21.709Z,45.45
2018-09-02T13:23:50.922Z,44.42
2018-09-02T13:26:19.740Z,45.24
2018-09-02T13:28:48.521Z,46.10
2018-09-02T13:31:17.967Z,45.15
2018-09-02T13:33:47.516Z,45.90
2018-09-02T13:36:16.533Z,44.14
2018-09-02T13:38:46.338Z,45.63
2018-09-02T13:41:15.397Z,44.56
2018-09-02T13:43:44.873Z,45.10
2018-09-02T13:46:15.076Z,45.81
2018-09-02T13:48:44.596Z,44.14
2018-09-02T13:51:14.433Z,44.56
2018-09-02T13:53:43.351Z,44.51
2018-09-02T13:56:12.713Z,43.87
2018-09-02T13:58:42.486Z,43.42
2018-09-02T14:01:11.512Z,43.46
2018-09-02T14:03:41.537Z,43.08
2018-09-02T14:06:11.465Z,43.25
2018-09-02T14:08:41.126Z,43.86
2018-09-02T14:11:10.742Z,44.23
2018-09-02T14:13:39.581Z,44.96
2018-09-02T14:16:08.465Z,43.93
2018-09-02T14:18:37.347Z,44.28
2018-09-02T14:21:06.964Z,44.68
2018-09-02T14:23:36.358Z,42.67
2018-09-02T14:26:06.342Z,43.26
2018-09-02T14:28:35.549Z,43.72
2018-09-02T14:31:05.714Z,43.80
2018-09-02T14:33:35.657Z,43.70
2018-09-02T14:36:04.956Z,43.46
2018-09-02T14:38:34.667Z,43.70
2018-09-02T14:41:03.907Z,42.79
2018-09-02T14:43:32.924Z,42.78
2018-09-02T14:46:02.351Z,43.01
2018-09-02T14:48:31.807Z,43.77
2018-09-02T14:51:01.236Z,42.87
2018-09-02T14:53:30.272Z,43.23
2018-09-02T14:55:59.780Z,43.48
2018-09-02T14:58:29.305Z,42.58
2018-09-02T15:00:58.294Z,43.40
2018-09-02T15:03:27.175Z,43.70
2018-09-02T15:05:56.049Z,43.70
2018-09-02T15:08:25.410Z,44.66
2018-09-02T15:10:54.837Z,45.38
2018-09-02T15:13:23.881Z,45.61
2018-09-02T15:15:53.332Z,45.62
2018-09-02T15:18:22.401Z,44.97
2018-09-02T15:20:51.300Z,45.09
2018-09-02T15:23:20.217Z,44.89
2018-09-02T15:25:49.151Z,44.95
2018-09-02T15:28:18.144Z,45.14
2018-09-02T15:30:47.755Z,45.30
2018-09-02T15:33:17.876Z,44.55
2018-09-02T15:35:47.264Z,44.67
2018-09-02T15:38:17.049Z,45.19
2018-09-02T15:40:46.398Z,44.14
2018-09-02T15:43:15.924Z,45.27
2018-09-02T15:45:45.038Z,45.47
2018-09-02T15:48:14.767Z,46.37
2018-09-02T15:50:44.333Z,46.59
2018-09-02T15:53:13.173Z,46.94
2018-09-02T15:55:42.633Z,47.32
2018-09-02T15:58:13.139Z,46.65
2018-09-02T16:00:42.171Z,44.91
2018-09-02T16:03:11.545Z,46.33
2018-09-02T16:05:40.439Z,45.39
2018-09-02T16:08:10.291Z,46.78
2018-09-02T16:10:39.737Z,47.44
2018-09-02T16:13:08.936Z,47.10
2018-09-02T16:15:37.807Z,46.87
2018-09-02T16:18:07.590Z,47.09
2018-09-02T16:20:36.785Z,48.64
2018-09-02T16:23:07.195Z,48.41
2018-09-02T16:25:36.291Z,48.77
2018-09-02T16:28:05.532Z,49.67
2018-09-02T16:30:35.135Z,50.24
2018-09-02T16:33:04.833Z,50.64
2018-09-02T16:35:34.855Z,48.83
2018-09-02T16:38:04.519Z,49.32
2018-09-02T16:40:33.997Z,49.83
2018-09-02T16:43:03.031Z,49.22
2018-09-02T16:45:31.894Z,48.69
2018-09-02T16:48:01.537Z,48.54
2018-09-02T16:50:30.863Z,47.80
2018-09-02T16:52:59.721Z,48.69
2018-09-02T16:55:29.154Z,47.63
2018-09-02T16:57:58.961Z,47.51
2018-09-02T17:00:27.883Z,47.93
2018-09-02T17:02:56.673Z,47.95
2018-09-02T17:05:25.730Z,48.73
2018-09-02T17:07:55.380Z,49.26
2018-09-02T17:10:24.760Z,50.34
2018-09-02T17:12:53.649Z,52.64
2018-09-02T17:15:22.466Z,54.17
2018-09-02T17:17:51.392Z,54.98
2018-09-02T17:20:24.944Z,54.83
2018-09-02T17:22:58.161Z,56.38
2018-09-02T17:25:27.088Z,56.72
2018-09-02T17:27:56.368Z,57.56
2018-09-02T17:30:26.109Z,56.98
2018-09-02T17:32:54.986Z,58.17
2018-09-02T17:35:24.662Z,58.33
2018-09-02T17:37:53.944Z,58.45
2018-09-02T17:40:22.723Z,58.28
2018-09-02T17:42:51.496Z,58.65
2018-09-02T17:45:20.695Z,59.16
2018-09-02T17:47:50.209Z,59.66
2018-09-02T17:50:19.573Z,59.91
2018-09-02T17:52:48.499Z,60.29
2018-09-02T17:55:18.186Z,61.53
2018-09-02T17:57:47.684Z,61.57
2018-09-02T18:00:20.160Z,62.09
2018-09-02T18:02:49.029Z,62.68
2018-09-02T18:05:18.012Z,63.31
2018-09-02T18:07:47.827Z,63.80
2018-09-02T18:10:17.577Z,63.32
2018-09-02T18:12:47.317Z,63.90
2018-09-02T18:15:16.285Z,64.08
2018-09-02T18:17:45.341Z,64.84
2018-09-02T18:20:14.307Z,65.22
2018-09-02T18:22:43.835Z,66.25
2018-09-02T18:25:13.477Z,67.89
2018-09-02T18:27:45.019Z,68.80
2018-09-02T18:30:14.780Z,69.47
2018-09-02T18:32:43.584Z,69.98
2018-09-02T18:35:13.055Z,69.84
2018-09-02T18:37:42.727Z,70.37
2018-09-02T18:40:11.588Z,70.55
2018-09-02T18:42:40.339Z,71.28
2018-09-02T18:45:09.522Z,71.56
2018-09-02T18:48:10.377Z,70.85
2018-09-02T18:50:40.068Z,71.08
2018-09-02T18:53:08.853Z,71.11
2018-09-02T18:55:38.247Z,72.39
2018-09-02T18:58:07.666Z,71.97
2018-09-02T19:00:37.113Z,71.38
2018-09-02T19:03:07.264Z,71.85
2018-09-02T19:05:36.428Z,72.01
2018-09-02T19:08:06.965Z,71.59
2018-09-02T19:10:36.119Z,72.63
2018-09-02T19:13:05.479Z,72.12
2018-09-02T19:15:34.995Z,72.54
2018-09-02T19:18:04.069Z,72.36
2018-09-02T19:20:33.125Z,72.60
2018-09-02T19:23:01.914Z,71.90
2018-09-02T19:25:30.805Z,72.80
2018-09-02T19:27:59.597Z,72.12
2018-09-02T19:30:28.984Z,72.62
2018-09-02T19:32:58.818Z,72.18
2018-09-02T19:35:28.414Z,73.49
2018-09-02T19:37:57.685Z,73.37
2018-09-02T19:40:26.527Z,73.92
2018-09-02T19:42:55.319Z,74.18
2018-09-02T19:45:24.187Z,74.46
2018-09-02T19:47:53.696Z,74.40
2018-09-02T19:50:23.277Z,74.27
2018-09-02T19:52:52.086Z,75.61
2018-09-02T19:55:21.573Z,75.27
2018-09-02T19:57:51.005Z,74.88
2018-09-02T20:00:20.053Z,75.70
2018-09-02T20:02:48.828Z,75.32
2018-09-02T20:05:17.827Z,74.96
2018-09-02T20:07:47.228Z,76.04
2018-09-02T20:10:17.668Z,75.58
2018-09-02T20:12:46.592Z,75.72
2018-09-02T20:15:15.663Z,76.32
2018-09-02T20:17:44.607Z,76.64
2018-09-02T20:20:14.608Z,76.45
2018-09-02T20:22:43.491Z,77.06
2018-09-02T20:25:12.339Z,76.40
2018-09-02T20:27:41.123Z,76.08
2018-09-02T20:30:10.887Z,76.23
2018-09-02T20:32:39.695Z,77.50
2018-09-02T20:35:09.320Z,78.04
2018-09-02T20:37:38.637Z,78.29
2018-09-02T20:40:07.996Z,77.51
2018-09-02T20:42:37.334Z,77.79
2018-09-02T20:45:06.657Z,78.66
2018-09-02T20:47:36.615Z,79.29
2018-09-02T20:50:06.548Z,79.11
2018-09-02T20:52:35.812Z,79.01
2018-09-02T20:55:05.404Z,77.96
2018-09-02T20:57:35.255Z,78.26
2018-09-02T21:00:05.879Z,78.47
2018-09-02T21:02:35.279Z,77.62
2018-09-02T21:05:04.869Z,77.52
2018-09-02T21:07:34.618Z,77.24
2018-09-02T21:10:04.211Z,78.26
2018-09-02T21:12:33.041Z,78.31
2018-09-02T21:15:02.402Z,79.17
2018-09-02T21:17:31.197Z,78.28
2018-09-02T21:20:00.057Z,79.23
2018-09-02T21:22:28.953Z,79.58
2018-09-02T21:24:57.739Z,79.86
2018-09-02T21:27:27.317Z,80.48
2018-09-02T21:29:57.279Z,80.69
2018-09-02T21:32:26.076Z,80.24
2018-09-02T21:34:55.578Z,80.29
2018-09-02T21:37:24.372Z,80.56
2018-09-02T21:39:53.600Z,80.53
2018-09-02T21:42:22.448Z,80.08
2018-09-02T21:44:51.315Z,80.11
2018-09-02T21:47:20.661Z,81.22
2018-09-02T21:49:50.072Z,80.98
2018-09-02T21:52:18.852Z,81.93
2018-09-02T21:54:48.311Z,81.74
2018-09-02T21:57:17.755Z,81.08
2018-09-02T21:59:46.835Z,80.73
2018-09-02T22:02:15.737Z,80.76
2018-09-02T22:04:45.075Z,80.77
2018-09-02T22:07:14.696Z,80.76
2018-09-02T22:09:44.228Z,81.98
2018-09-02T22:12:13.035Z,82.01
2018-09-02T22:14:41.864Z,81.90
2018-09-02T22:17:10.732Z,81.28
2018-09-02T22:19:39.609Z,81.49
2018-09-02T22:22:08.915Z,81.75
2018-09-02T22:24:37.786Z,81.85
2018-09-02T22:27:08.012Z,81.93
2018-09-02T22:29:37.547Z,81.61
2018-09-02T22:32:07.973Z,82.11
2018-09-02T22:34:37.528Z,82.13
2018-09-02T22:37:07.006Z,82.21
2018-09-02T22:39:37.034Z,81.87
2018-09-02T22:42:06.804Z,82.33
2018-09-02T22:44:36.028Z,82.10
2018-09-02T22:47:06.007Z,82.42
2018-09-02T22:49:35.930Z,82.62
2018-09-02T22:52:05.436Z,82.90
2018-09-02T22:54:34.761Z,82.31
2018-09-02T22:57:04.565Z,82.43
2018-09-02T22:59:35.094Z,82.19
2018-09-02T23:02:04.286Z,82.22
2018-09-02T23:04:33.089Z,82.08
2018-09-02T23:07:02.345Z,82.00
2018-09-02T23:09:32.041Z,82.66
2018-09-02T23:12:01.329Z,82.48
2018-09-02T23:15:01.020Z,82.28
2018-09-02T23:17:29.804Z,82.64
2018-09-02T23:19:59.640Z,83.17
2018-09-02T23:22:28.496Z,82.02
2018-09-02T23:24:57.973Z,81.78
2018-09-02T23:27:26.793Z,82.68
2018-09-02T23:29:56.563Z,81.41
2018-09-02T23:32:25.313Z,82.14
2018-09-02T23:34:55.526Z,81.68
2018-09-02T23:37:24.283Z,82.44
2018-09-02T23:39:53.912Z,82.59
2018-09-02T23:42:22.819Z,83.06
2018-09-02T23:44:51.672Z,83.21
2018-09-02T23:47:21.573Z,83.31
2018-09-02T23:49:50.926Z,83.08
2018-09-02T23:52:19.728Z,82.92
2018-09-02T23:54:49.223Z,82.52
2018-09-02T23:57:18.640Z,83.41
2018-09-02T23:59:47.620Z,83.09
